Time;durP1;ratioP1;P1;durP2;ratioP2;P2;SDS_P1;SDS_P2;PMS_P1;PMS_P2;Temp;Humidity;BMP_temperature;BMP_pressure;BME280_temperature;BME280_humidity;BME280_pressure;Samples;Min_cycle;Max_cycle;Signal;HPM_P1;HPM_P2
2022/12/24 00:00:12;;;;;;;5.67;5.10;;;;;;;;;;4883329;29;20233;-86
2022/12/24 00:02:40;;;;;;;5.30;4.80;;;;;;;;;;4889409;29;20256;-84
2022/12/24 00:05:07;;;;;;;6.47;5.00;;;;;;;;;;4878078;29;20228;-86
2022/12/24 00:07:38;;;;;;;5.60;5.10;;;;;;;;;;4888126;29;20311;-86
2022/12/24 00:10:06;;;;;;;6.50;5.20;;;;;;;;;;4884091;29;20220;-86
2022/12/24 00:12:31;;;;;;;5.40;5.00;;;;;;;;;;4892536;29;20228;-85
2022/12/24 00:14:57;;;;;;;6.13;5.00;;;;;;;;;;4876095;29;20707;-85
2022/12/24 00:17:22;;;;;;;5.70;5.17;;;;;;;;;;4892704;29;20244;-86
2022/12/24 00:19:48;;;;;;;5.03;4.63;;;;;;;;;;4886216;29;20235;-84
2022/12/24 00:22:16;;;;;;;5.53;5.03;;;;;;;;;;4894503;29;20650;-85
2022/12/24 00:24:42;;;;;;;4.73;4.23;;;;;;;;;;4889790;29;20233;-85
2022/12/24 00:27:07;;;;;;;5.07;4.60;;;;;;;;;;4894134;29;20233;-86
2022/12/24 00:29:33;;;;;;;4.77;4.37;;;;;;;;;;4886045;29;20777;-86
2022/12/24 00:32:00;;;;;;;5.60;5.10;;;;;;;;;;4889780;29;20234;-85
2022/12/24 00:34:26;;;;;;;4.97;4.47;;;;;;;;;;4896711;29;20216;-84
2022/12/24 00:36:54;;;;;;;6.20;4.90;;;;;;;;;;4875749;29;20897;-85
2022/12/24 00:39:20;;;;;;;5.53;5.00;;;;;;;;;;4889110;29;20240;-84
2022/12/24 00:41:45;;;;;;;6.77;5.17;;;;;;;;;;4897738;29;20228;-83
2022/12/24 00:44:13;;;;;;;5.63;4.90;;;;;;;;;;4883787;29;20245;-84
2022/12/24 00:46:39;;;;;;;5.63;5.13;;;;;;;;;;4891251;29;20249;-87
2022/12/24 00:49:07;;;;;;;5.80;5.23;;;;;;;;;;4892723;29;20232;-84
2022/12/24 00:51:33;;;;;;;6.73;5.63;;;;;;;;;;4893126;29;20293;-85
2022/12/24 00:53:59;;;;;;;6.07;5.40;;;;;;;;;;4896462;29;20257;-85
2022/12/24 00:56:24;;;;;;;6.90;6.03;;;;;;;;;;4881763;29;20237;-85
2022/12/24 00:58:50;;;;;;;7.00;6.20;;;;;;;;;;4875876;29;20288;-85
2022/12/24 01:01:16;;;;;;;7.60;6.10;;;;;;;;;;4872971;29;20239;-85
2022/12/24 01:03:49;;;;;;;6.83;6.17;;;;;;;;;;4885717;29;20257;-86
2022/12/24 01:06:19;;;;;;;9.57;6.57;;;;;;;;;;4884085;29;20224;-87
2022/12/24 01:08:45;;;;;;;7.17;6.23;;;;;;;;;;4885217;29;20711;-86
2022/12/24 01:11:11;;;;;;;9.17;7.37;;;;;;;;;;4878228;29;20232;-82
2022/12/24 01:13:36;;;;;;;7.23;6.43;;;;;;;;;;4886868;29;20311;-83
2022/12/24 01:16:02;;;;;;;7.60;6.57;;;;;;;;;;4884625;29;20246;-85
2022/12/24 01:18:28;;;;;;;7.63;6.83;;;;;;;;;;4889307;29;20248;-83
2022/12/24 01:21:00;;;;;;;11.47;7.30;;;;;;;;;;4908163;29;20233;-83
2022/12/24 01:23:28;;;;;;;7.40;6.67;;;;;;;;;;4904434;29;20257;-83
2022/12/24 01:25:53;;;;;;;8.97;6.67;;;;;;;;;;4908197;28;20251;-81
2022/12/24 01:28:21;;;;;;;8.40;6.90;;;;;;;;;;4907233;29;20236;-82
2022/12/24 01:30:47;;;;;;;7.60;6.77;;;;;;;;;;4880924;29;20217;-84
2022/12/24 01:33:15;;;;;;;7.73;6.93;;;;;;;;;;4898322;28;20243;-84
2022/12/24 01:35:41;;;;;;;6.60;5.90;;;;;;;;;;4907924;29;20232;-84
2022/12/24 01:38:10;;;;;;;7.57;6.90;;;;;;;;;;4891540;29;20223;-85
2022/12/24 01:43:27;;;;;;;7.67;6.80;;;;;;;;;;4893118;29;20229;-83
2022/12/24 01:45:53;;;;;;;7.17;6.47;;;;;;;;;;4885668;29;20332;-83
2022/12/24 01:48:21;;;;;;;8.20;7.27;;;;;;;;;;4906124;29;20755;-86
2022/12/24 01:50:48;;;;;;;8.00;7.17;;;;;;;;;;4884105;29;20716;-86
2022/12/24 01:53:14;;;;;;;8.37;7.47;;;;;;;;;;4865168;29;20225;-84
2022/12/24 01:55:41;;;;;;;8.30;7.50;;;;;;;;;;4883460;29;20234;-84
2022/12/24 01:58:10;;;;;;;9.53;7.73;;;;;;;;;;4880876;29;20292;-82
2022/12/24 02:00:37;;;;;;;9.20;8.30;;;;;;;;;;4878344;29;20233;-83
2022/12/24 02:03:03;;;;;;;9.27;7.77;;;;;;;;;;4881717;29;20247;-84
2022/12/24 02:05:35;;;;;;;8.53;7.57;;;;;;;;;;4886340;29;20216;-85
2022/12/24 02:08:04;;;;;;;8.77;7.90;;;;;;;;;;4885026;29;20228;-84
2022/12/24 02:10:30;;;;;;;8.50;7.70;;;;;;;;;;4884095;29;20229;-84
2022/12/24 02:12:56;;;;;;;9.87;8.00;;;;;;;;;;4876583;29;20234;-83
2022/12/24 02:15:23;;;;;;;8.83;7.90;;;;;;;;;;4887648;29;20243;-85
2022/12/24 02:18:13;;;;;;;8.33;7.47;;;;;;;;;;4883735;29;20707;-86
2022/12/24 02:21:12;;;;;;;8.37;7.50;;;;;;;;;;4856946;29;20245;-85
2022/12/24 02:23:43;;;;;;;8.43;7.07;;;;;;;;;;4891779;29;20842;-84
2022/12/24 02:26:14;;;;;;;10.00;7.53;;;;;;;;;;4878780;29;20233;-86
2022/12/24 02:28:58;;;;;;;7.57;6.77;;;;;;;;;;4908200;29;20228;-84
2022/12/24 02:31:49;;;;;;;10.97;7.30;;;;;;;;;;4901569;29;20259;-84
2022/12/24 02:34:39;;;;;;;8.00;6.93;;;;;;;;;;4891131;29;20413;-85
2022/12/24 02:37:07;;;;;;;8.93;6.87;;;;;;;;;;4897543;29;20248;-84
2022/12/24 02:39:46;;;;;;;10.37;7.27;;;;;;;;;;4883608;29;20231;-85
2022/12/24 02:42:11;;;;;;;7.20;6.50;;;;;;;;;;4888394;29;20235;-84
2022/12/24 02:44:47;;;;;;;6.37;5.77;;;;;;;;;;4884329;29;20228;-86
2022/12/24 02:47:15;;;;;;;7.30;6.07;;;;;;;;;;4876793;29;20228;-86
2022/12/24 02:49:44;;;;;;;6.80;5.90;;;;;;;;;;4861011;29;20239;-87
2022/12/24 02:52:28;;;;;;;7.03;5.80;;;;;;;;;;4874436;29;21132;-86
2022/12/24 02:54:56;;;;;;;5.50;5.00;;;;;;;;;;4884450;29;20320;-81
2022/12/24 02:57:49;;;;;;;6.30;5.50;;;;;;;;;;4863691;29;20252;-86
2022/12/24 03:00:21;;;;;;;6.40;5.60;;;;;;;;;;4896944;29;20236;-85
2022/12/24 03:02:55;;;;;;;7.50;6.00;;;;;;;;;;4882755;29;20301;-85
2022/12/24 03:05:30;;;;;;;6.77;6.17;;;;;;;;;;4880755;29;20632;-86
2022/12/24 03:08:34;;;;;;;8.50;5.90;;;;;;;;;;4884642;29;20224;-85
2022/12/24 03:11:03;;;;;;;6.20;5.60;;;;;;;;;;4882028;29;20579;-81
2022/12/24 03:13:29;;;;;;;5.80;5.30;;;;;;;;;;4876308;29;20226;-80
2022/12/24 03:15:54;;;;;;;6.03;4.93;;;;;;;;;;4888994;29;20299;-83
2022/12/24 03:18:26;;;;;;;5.60;5.03;;;;;;;;;;4881167;29;20272;-87
2022/12/24 03:21:09;;;;;;;5.93;5.33;;;;;;;;;;4882116;29;20233;-85
2022/12/24 03:23:34;;;;;;;5.00;4.50;;;;;;;;;;4884758;29;20754;-87
2022/12/24 03:26:01;;;;;;;5.10;4.60;;;;;;;;;;4875913;29;20283;-85
2022/12/24 03:28:27;;;;;;;5.67;5.17;;;;;;;;;;4885494;29;20304;-86
2022/12/24 03:30:52;;;;;;;5.87;4.50;;;;;;;;;;4883736;29;20233;-85
2022/12/24 03:33:18;;;;;;;4.73;4.30;;;;;;;;;;4881699;29;20778;-85
2022/12/24 03:35:46;;;;;;;4.57;4.17;;;;;;;;;;4886666;29;20228;-86
2022/12/24 03:38:14;;;;;;;4.83;4.43;;;;;;;;;;4891186;29;20235;-85
2022/12/24 03:40:42;;;;;;;4.40;4.00;;;;;;;;;;4862151;29;20262;-86
2022/12/24 03:43:11;;;;;;;3.83;3.50;;;;;;;;;;4864384;29;20237;-84
2022/12/24 03:45:36;;;;;;;3.03;2.83;;;;;;;;;;4877864;29;20279;-86
2022/12/24 03:48:02;;;;;;;3.30;3.00;;;;;;;;;;4890655;29;20737;-86
2022/12/24 03:50:30;;;;;;;3.87;3.47;;;;;;;;;;4873647;29;20280;-84
2022/12/24 03:52:57;;;;;;;3.40;3.10;;;;;;;;;;4869351;29;20239;-86
2022/12/24 03:55:26;;;;;;;3.73;3.27;;;;;;;;;;4868945;29;20232;-85
2022/12/24 03:57:54;;;;;;;3.70;3.30;;;;;;;;;;4890321;29;20236;-84
2022/12/24 04:00:22;;;;;;;3.43;3.10;;;;;;;;;;4888734;29;20357;-84
2022/12/24 04:02:47;;;;;;;3.37;3.07;;;;;;;;;;4889979;29;20264;-84
2022/12/24 04:05:14;;;;;;;3.27;2.97;;;;;;;;;;4859756;29;20309;-85
2022/12/24 04:07:42;;;;;;;3.10;2.80;;;;;;;;;;4890024;29;20252;-84
2022/12/24 04:10:13;;;;;;;3.30;3.00;;;;;;;;;;4873659;29;20235;-85
2022/12/24 04:12:39;;;;;;;2.87;2.67;;;;;;;;;;4890423;29;20230;-84
2022/12/24 04:15:07;;;;;;;3.13;2.73;;;;;;;;;;4888085;29;20665;-85
2022/12/24 04:17:33;;;;;;;3.10;2.90;;;;;;;;;;4877198;29;20247;-83
2022/12/24 04:20:01;;;;;;;3.17;2.80;;;;;;;;;;4891522;29;20224;-86
2022/12/24 04:22:26;;;;;;;3.73;3.33;;;;;;;;;;4889411;29;20305;-84
2022/12/24 04:24:52;;;;;;;2.50;2.33;;;;;;;;;;4892267;29;20232;-84
2022/12/24 04:27:17;;;;;;;3.30;3.00;;;;;;;;;;4900044;29;20233;-84
2022/12/24 04:29:45;;;;;;;3.30;2.97;;;;;;;;;;4891429;29;20318;-84
2022/12/24 04:32:11;;;;;;;3.40;2.33;;;;;;;;;;4875602;29;20241;-87
2022/12/24 04:34:36;;;;;;;3.87;2.77;;;;;;;;;;4891060;29;20234;-86
2022/12/24 04:37:02;;;;;;;2.97;2.77;;;;;;;;;;4891121;29;20244;-86
2022/12/24 04:39:28;;;;;;;2.70;2.50;;;;;;;;;;4886254;29;20600;-87
2022/12/24 04:41:53;;;;;;;2.40;2.20;;;;;;;;;;4879465;29;20233;-86
2022/12/24 04:44:19;;;;;;;1.97;1.87;;;;;;;;;;4876652;29;20232;-85
2022/12/24 04:46:46;;;;;;;2.33;2.13;;;;;;;;;;4893400;29;20217;-86
2022/12/24 04:49:12;;;;;;;2.20;2.10;;;;;;;;;;4886116;29;20786;-85
2022/12/24 04:51:37;;;;;;;2.03;1.93;;;;;;;;;;4908486;29;20236;-85
2022/12/24 04:54:03;;;;;;;2.53;2.33;;;;;;;;;;4886669;29;20231;-84
2022/12/24 04:56:31;;;;;;;2.70;2.50;;;;;;;;;;4890223;29;20308;-87
2022/12/24 04:59:00;;;;;;;2.90;2.60;;;;;;;;;;4885666;29;20276;-85
2022/12/24 05:01:27;;;;;;;2.60;2.40;;;;;;;;;;4890508;29;20277;-86
2022/12/24 05:03:57;;;;;;;2.67;2.47;;;;;;;;;;4883837;29;20221;-85
2022/12/24 05:06:28;;;;;;;2.67;2.47;;;;;;;;;;4879505;29;20633;-87
2022/12/24 05:08:54;;;;;;;2.53;2.33;;;;;;;;;;4888997;29;20303;-86
2022/12/24 05:11:22;;;;;;;2.60;2.40;;;;;;;;;;4889596;29;20220;-84
2022/12/24 05:13:48;;;;;;;2.40;2.27;;;;;;;;;;4884640;29;20221;-84
2022/12/24 05:16:20;;;;;;;2.67;2.47;;;;;;;;;;4896260;29;20723;-86
2022/12/24 05:18:48;;;;;;;3.20;2.90;;;;;;;;;;4886414;29;20287;-85
2022/12/24 05:21:18;;;;;;;2.33;2.13;;;;;;;;;;4879467;29;20728;-86
2022/12/24 05:26:28;;;;;;;2.57;2.37;;;;;;;;;;4887576;29;20229;-86
2022/12/24 05:28:58;;;;;;;2.77;2.57;;;;;;;;;;4898389;29;20233;-86
2022/12/24 05:31:26;;;;;;;3.03;2.83;;;;;;;;;;4879193;29;20232;-85
2022/12/24 05:33:54;;;;;;;2.87;2.67;;;;;;;;;;4874014;29;20225;-83
2022/12/24 05:36:22;;;;;;;2.20;2.00;;;;;;;;;;4880296;29;20723;-86
2022/12/24 05:38:50;;;;;;;2.60;2.40;;;;;;;;;;4893473;29;20252;-85
2022/12/24 05:41:18;;;;;;;2.47;2.27;;;;;;;;;;4879463;29;20248;-84
2022/12/24 05:43:44;;;;;;;2.63;2.43;;;;;;;;;;4876799;29;20280;-85
2022/12/24 05:46:14;;;;;;;2.87;2.67;;;;;;;;;;4891744;29;20722;-86
2022/12/24 05:48:44;;;;;;;3.00;2.70;;;;;;;;;;4888943;29;20232;-84
2022/12/24 05:51:13;;;;;;;3.00;2.80;;;;;;;;;;4865170;29;20228;-87
2022/12/24 05:53:41;;;;;;;2.73;2.53;;;;;;;;;;4864587;29;20225;-84
2022/12/24 05:56:14;;;;;;;3.00;2.73;;;;;;;;;;4881038;29;20267;-86
2022/12/24 05:58:40;;;;;;;2.57;2.37;;;;;;;;;;4899598;29;20244;-83
2022/12/24 06:01:05;;;;;;;3.03;2.70;;;;;;;;;;4882013;29;20264;-84
2022/12/24 06:03:33;;;;;;;2.97;2.67;;;;;;;;;;4899162;29;20225;-86
2022/12/24 06:06:06;;;;;;;3.53;3.23;;;;;;;;;;4871445;29;20245;-85
2022/12/24 06:08:32;;;;;;;3.40;3.10;;;;;;;;;;4845842;29;20696;-84
2022/12/24 06:11:02;;;;;;;3.23;2.97;;;;;;;;;;4883836;29;20235;-85
2022/12/24 06:13:27;;;;;;;3.50;3.20;;;;;;;;;;4897290;29;20217;-85
2022/12/24 06:15:54;;;;;;;3.93;2.87;;;;;;;;;;4886495;29;20233;-87
2022/12/24 06:18:20;;;;;;;3.13;2.93;;;;;;;;;;4891151;29;20228;-87
2022/12/24 06:20:51;;;;;;;3.60;3.30;;;;;;;;;;4878159;29;20236;-88
2022/12/24 06:23:16;;;;;;;3.10;2.80;;;;;;;;;;4865729;29;20225;-84
2022/12/24 06:25:49;;;;;;;3.40;3.10;;;;;;;;;;4884571;29;20218;-84
2022/12/24 06:28:14;;;;;;;3.20;3.00;;;;;;;;;;4860858;29;20225;-84
2022/12/24 06:30:46;;;;;;;3.03;2.83;;;;;;;;;;4878693;29;20225;-84
2022/12/24 06:33:12;;;;;;;3.20;2.90;;;;;;;;;;4865947;29;20383;-85
2022/12/24 06:35:37;;;;;;;4.00;2.60;;;;;;;;;;4886040;29;20205;-85
2022/12/24 06:38:03;;;;;;;6.13;3.10;;;;;;;;;;4895027;29;20228;-87
2022/12/24 06:40:28;;;;;;;2.90;2.70;;;;;;;;;;4877811;29;20731;-86
2022/12/24 06:42:56;;;;;;;3.13;2.93;;;;;;;;;;4877672;29;20226;-86
2022/12/24 06:45:22;;;;;;;2.73;2.53;;;;;;;;;;4868823;29;20225;-86
2022/12/24 06:47:47;;;;;;;2.97;2.77;;;;;;;;;;4891852;29;20232;-86
2022/12/24 06:50:13;;;;;;;2.93;2.67;;;;;;;;;;4889045;29;20365;-85
2022/12/24 06:52:41;;;;;;;3.57;3.27;;;;;;;;;;4905267;29;20256;-84
2022/12/24 06:55:07;;;;;;;3.47;3.17;;;;;;;;;;4876010;29;20217;-86
2022/12/24 06:57:35;;;;;;;3.30;3.07;;;;;;;;;;4888032;29;20417;-87
2022/12/24 07:00:01;;;;;;;3.60;3.30;;;;;;;;;;4871475;29;20231;-86
2022/12/24 07:02:30;;;;;;;3.33;3.03;;;;;;;;;;4874479;29;20224;-87
2022/12/24 07:04:58;;;;;;;3.50;3.30;;;;;;;;;;4883046;29;20706;-86
2022/12/24 07:07:24;;;;;;;4.07;3.37;;;;;;;;;;4885686;29;20293;-87
2022/12/24 07:09:49;;;;;;;3.80;3.40;;;;;;;;;;4898564;29;20220;-87
2022/12/24 07:12:15;;;;;;;4.70;4.30;;;;;;;;;;4873352;29;20232;-86
2022/12/24 07:14:40;;;;;;;8.47;7.67;;;;;;;;;;4887502;29;20235;-86
2022/12/24 07:17:10;;;;;;;15.20;13.67;;;;;;;;;;4884236;29;20244;-83
2022/12/24 07:19:38;;;;;;;17.20;15.40;;;;;;;;;;4892136;29;20700;-85
2022/12/24 07:22:13;;;;;;;18.03;16.23;;;;;;;;;;4889907;29;20297;-86
2022/12/24 07:24:38;;;;;;;24.07;21.77;;;;;;;;;;4862033;29;20232;-85
2022/12/24 07:27:06;;;;;;;19.40;16.37;;;;;;;;;;4881593;29;20771;-85
2022/12/24 07:29:31;;;;;;;16.17;14.43;;;;;;;;;;4871213;29;20225;-86
2022/12/24 07:32:06;;;;;;;17.63;14.53;;;;;;;;;;4891132;29;20235;-82
2022/12/24 07:34:34;;;;;;;18.33;14.67;;;;;;;;;;4886861;29;20220;-84
2022/12/24 07:37:02;;;;;;;15.20;13.47;;;;;;;;;;4877118;29;20247;-84
2022/12/24 07:39:27;;;;;;;15.67;13.77;;;;;;;;;;4889913;29;20721;-80
2022/12/24 07:41:53;;;;;;;15.17;12.17;;;;;;;;;;4874493;29;20236;-82
2022/12/24 07:44:18;;;;;;;15.20;12.67;;;;;;;;;;4874857;29;20226;-78
2022/12/24 07:46:46;;;;;;;17.50;11.90;;;;;;;;;;4889820;29;20261;-83
2022/12/24 07:49:12;;;;;;;16.30;11.07;;;;;;;;;;4867172;29;20233;-81
2022/12/24 07:51:39;;;;;;;17.20;10.50;;;;;;;;;;4892485;29;20284;-82
2022/12/24 07:54:04;;;;;;;14.53;10.57;;;;;;;;;;4893825;29;20233;-84
2022/12/24 07:56:31;;;;;;;15.17;10.37;;;;;;;;;;4891707;29;20243;-82
2022/12/24 07:58:56;;;;;;;12.60;8.77;;;;;;;;;;4878198;29;20224;-84
2022/12/24 08:01:22;;;;;;;18.03;9.30;;;;;;;;;;4887017;29;20275;-84
2022/12/24 08:03:53;;;;;;;13.90;8.30;;;;;;;;;;4889023;29;20243;-83
2022/12/24 08:06:21;;;;;;;11.97;8.07;;;;;;;;;;4894111;29;20237;-82
2022/12/24 08:08:47;;;;;;;13.63;8.90;;;;;;;;;;4875394;29;20231;-80
2022/12/24 08:11:12;;;;;;;21.57;11.63;;;;;;;;;;4885903;29;20339;-82
2022/12/24 08:13:38;;;;;;;26.27;11.67;;;;;;;;;;4860908;29;20225;-81
2022/12/24 08:16:04;;;;;;;20.47;8.53;;;;;;;;;;4878751;29;20276;-80
2022/12/24 08:18:30;;;;;;;19.53;7.83;;;;;;;;;;4877073;29;20236;-84
2022/12/24 08:20:57;;;;;;;18.20;7.33;;;;;;;;;;4859268;29;20632;-83
2022/12/24 08:23:26;;;;;;;11.77;7.17;;;;;;;;;;4868472;29;20229;-87
2022/12/24 08:25:54;;;;;;;15.97;6.50;;;;;;;;;;4853105;29;20230;-83
2022/12/24 08:28:19;;;;;;;20.90;7.07;;;;;;;;;;4860210;29;20244;-86
2022/12/24 08:30:48;;;;;;;22.70;8.07;;;;;;;;;;4897862;29;20220;-83
2022/12/24 08:33:18;;;;;;;20.33;8.77;;;;;;;;;;4878848;29;20225;-84
2022/12/24 08:35:54;;;;;;;18.47;7.43;;;;;;;;;;4878141;29;20229;-87
2022/12/24 08:38:22;;;;;;;16.07;5.83;;;;;;;;;;4875640;29;20225;-86
2022/12/24 08:40:48;;;;;;;13.07;5.20;;;;;;;;;;4888112;29;20236;-87
2022/12/24 08:43:17;;;;;;;16.83;5.03;;;;;;;;;;4888282;29;20991;-87
2022/12/24 08:45:45;;;;;;;13.43;4.80;;;;;;;;;;4872493;29;20237;-86
2022/12/24 08:48:10;;;;;;;17.20;6.20;;;;;;;;;;4893008;29;20309;-86
2022/12/24 08:50:39;;;;;;;16.27;5.57;;;;;;;;;;4895011;29;20229;-86
2022/12/24 08:53:05;;;;;;;18.20;5.53;;;;;;;;;;4874370;29;20234;-87
2022/12/24 08:55:30;;;;;;;15.03;5.10;;;;;;;;;;4889955;29;20225;-87
2022/12/24 08:57:56;;;;;;;19.07;5.50;;;;;;;;;;4894804;29;20253;-87
2022/12/24 09:00:23;;;;;;;18.90;5.60;;;;;;;;;;4900818;29;20223;-86
2022/12/24 09:02:49;;;;;;;18.77;5.43;;;;;;;;;;4901133;29;20300;-85
2022/12/24 09:05:20;;;;;;;18.70;5.57;;;;;;;;;;4903243;29;20270;-85
2022/12/24 09:07:45;;;;;;;22.97;5.33;;;;;;;;;;4896140;29;20220;-85
2022/12/24 09:10:11;;;;;;;22.40;5.87;;;;;;;;;;4883489;29;20228;-85
2022/12/24 09:12:37;;;;;;;16.77;5.37;;;;;;;;;;4880076;29;20232;-88
2022/12/24 09:15:06;;;;;;;15.17;6.00;;;;;;;;;;4895848;29;20608;-89
2022/12/24 09:17:33;;;;;;;15.13;5.30;;;;;;;;;;4874911;29;20241;-87
2022/12/24 09:19:59;;;;;;;20.73;5.93;;;;;;;;;;4894181;29;20268;-88
2022/12/24 09:22:27;;;;;;;17.43;5.60;;;;;;;;;;4896476;29;20231;-86
2022/12/24 09:24:53;;;;;;;20.30;5.87;;;;;;;;;;4893661;29;20323;-88
2022/12/24 09:27:18;;;;;;;19.40;6.23;;;;;;;;;;4893342;29;20229;-87
2022/12/24 09:29:46;;;;;;;20.27;5.73;;;;;;;;;;4888918;29;20224;-88
2022/12/24 09:32:12;;;;;;;18.23;5.93;;;;;;;;;;4892003;29;20314;-87
2022/12/24 09:34:39;;;;;;;14.70;5.80;;;;;;;;;;4899802;29;20228;-86
2022/12/24 09:37:04;;;;;;;16.80;5.80;;;;;;;;;;4895449;29;20217;-86
2022/12/24 09:39:30;;;;;;;15.87;5.70;;;;;;;;;;4898670;29;20220;-88
2022/12/24 09:42:11;;;;;;;20.83;6.43;;;;;;;;;;4868829;29;20232;-85
2022/12/24 09:44:41;;;;;;;20.53;6.13;;;;;;;;;;4908230;29;20228;-86
2022/12/24 09:47:32;;;;;;;19.20;5.93;;;;;;;;;;4895359;29;20219;-89
2022/12/24 09:50:00;;;;;;;20.47;6.27;;;;;;;;;;4908044;29;20233;-86
2022/12/24 09:52:36;;;;;;;19.10;5.83;;;;;;;;;;4895104;29;20229;-87
2022/12/24 09:55:11;;;;;;;17.33;5.93;;;;;;;;;;4902166;29;20725;-85
2022/12/24 09:57:40;;;;;;;22.07;6.57;;;;;;;;;;4909672;29;20723;-85
2022/12/24 10:00:15;;;;;;;19.90;6.20;;;;;;;;;;4886996;29;20241;-82
2022/12/24 10:02:41;;;;;;;23.20;6.10;;;;;;;;;;4887243;29;20220;-83
2022/12/24 10:05:14;;;;;;;23.57;6.47;;;;;;;;;;4898740;29;20544;-83
2022/12/24 10:07:50;;;;;;;19.83;6.00;;;;;;;;;;4895552;29;20240;-86
2022/12/24 10:10:50;;;;;;;20.83;6.33;;;;;;;;;;4902845;29;20234;-87
2022/12/24 10:13:44;;;;;;;15.60;5.90;;;;;;;;;;4897564;29;20216;-82
2022/12/24 10:16:27;;;;;;;18.93;6.30;;;;;;;;;;4913067;29;20223;-83
2022/12/24 10:19:28;;;;;;;23.83;8.23;;;;;;;;;;4896976;29;20255;-84
2022/12/24 10:22:03;;;;;;;19.97;6.50;;;;;;;;;;4881230;29;20232;-82
2022/12/24 10:25:21;;;;;;;18.63;6.70;;;;;;;;;;4913104;29;20219;-84
2022/12/24 10:27:48;;;;;;;24.00;6.70;;;;;;;;;;4872334;29;20258;-80
2022/12/24 10:30:15;;;;;;;22.70;6.20;;;;;;;;;;4869886;29;20225;-79
2022/12/24 10:32:41;;;;;;;13.67;5.07;;;;;;;;;;4892954;29;20228;-82
2022/12/24 10:35:16;;;;;;;19.97;5.70;;;;;;;;;;4888374;29;20240;-82
2022/12/24 10:37:46;;;;;;;13.80;6.10;;;;;;;;;;4914751;29;20239;-81
2022/12/24 10:40:41;;;;;;;13.87;5.57;;;;;;;;;;4889336;29;20228;-81
2022/12/24 10:43:18;;;;;;;15.90;5.87;;;;;;;;;;4890492;29;20296;-81
2022/12/24 10:45:47;;;;;;;14.93;6.10;;;;;;;;;;4901136;29;20225;-81
2022/12/24 10:48:19;;;;;;;19.67;5.70;;;;;;;;;;4893970;29;20232;-81
2022/12/24 10:51:03;;;;;;;20.63;6.00;;;;;;;;;;4892923;29;20252;-81
2022/12/24 10:54:06;;;;;;;22.37;6.77;;;;;;;;;;4883574;29;20299;-79
2022/12/24 10:56:31;;;;;;;18.07;5.40;;;;;;;;;;4908627;29;20241;-82
2022/12/24 10:58:57;;;;;;;16.40;5.00;;;;;;;;;;4895892;29;20225;-80
2022/12/24 11:01:44;;;;;;;14.27;5.20;;;;;;;;;;4882721;29;20232;-79
2022/12/24 11:04:20;;;;;;;18.63;5.17;;;;;;;;;;4863991;29;20258;-80
2022/12/24 11:06:53;;;;;;;16.20;5.07;;;;;;;;;;4883583;29;20220;-81
2022/12/24 11:09:22;;;;;;;15.63;5.63;;;;;;;;;;4912853;29;20295;-81
2022/12/24 11:11:47;;;;;;;20.57;5.67;;;;;;;;;;4897941;29;20236;-82
2022/12/24 11:14:14;;;;;;;20.50;6.53;;;;;;;;;;4897433;29;20231;-81
2022/12/24 11:16:45;;;;;;;14.10;5.40;;;;;;;;;;4896868;29;20228;-82
2022/12/24 11:19:15;;;;;;;15.33;4.70;;;;;;;;;;4895125;29;20240;-82
2022/12/24 11:22:06;;;;;;;18.77;5.30;;;;;;;;;;4897824;29;20231;-87
2022/12/24 11:24:36;;;;;;;15.73;5.13;;;;;;;;;;4898951;29;20225;-84
2022/12/24 11:27:48;;;;;;;15.07;5.87;;;;;;;;;;4899053;29;20256;-86
2022/12/24 11:30:14;;;;;;;15.80;4.90;;;;;;;;;;4868611;29;20236;-83
2022/12/24 11:32:43;;;;;;;13.27;5.10;;;;;;;;;;4918989;29;20778;-85
2022/12/24 11:35:22;;;;;;;14.00;4.80;;;;;;;;;;4876532;29;20228;-89
2022/12/24 11:37:48;;;;;;;12.00;4.13;;;;;;;;;;4897542;29;20243;-88
2022/12/24 11:40:21;;;;;;;19.07;5.13;;;;;;;;;;4904447;29;20235;-82
2022/12/24 11:42:52;;;;;;;12.80;5.23;;;;;;;;;;4914420;29;20696;-86
2022/12/24 11:45:23;;;;;;;20.37;5.53;;;;;;;;;;4899871;29;20238;-85
2022/12/24 11:47:48;;;;;;;14.07;5.10;;;;;;;;;;4896619;29;20316;-89
2022/12/24 11:50:35;;;;;;;13.33;5.50;;;;;;;;;;4921632;29;20232;-86
2022/12/24 11:53:19;;;;;;;11.10;4.83;;;;;;;;;;4899169;29;20208;-82
2022/12/24 11:55:54;;;;;;;11.90;4.53;;;;;;;;;;4910975;29;20236;-82
2022/12/24 11:58:31;;;;;;;13.13;5.53;;;;;;;;;;4900270;29;20275;-85
2022/12/24 12:01:20;;;;;;;13.10;4.20;;;;;;;;;;4896389;29;20231;-87
2022/12/24 12:03:48;;;;;;;13.43;5.80;;;;;;;;;;4915348;29;20224;-90
2022/12/24 12:06:22;;;;;;;19.03;5.90;;;;;;;;;;4861368;29;20213;-87
2022/12/24 12:08:49;;;;;;;16.60;6.00;;;;;;;;;;4910850;29;20283;-85
2022/12/24 12:11:18;;;;;;;11.33;5.07;;;;;;;;;;4902845;29;20228;-84
2022/12/24 12:13:43;;;;;;;12.43;4.60;;;;;;;;;;4902547;29;20233;-84
2022/12/24 12:16:15;;;;;;;13.80;4.70;;;;;;;;;;4919072;28;20320;-80
2022/12/24 12:18:42;;;;;;;16.17;5.13;;;;;;;;;;4908839;29;20227;-86
2022/12/24 12:21:15;;;;;;;11.10;4.87;;;;;;;;;;4902797;29;20216;-84
2022/12/24 12:24:00;;;;;;;17.03;5.33;;;;;;;;;;4917757;29;20284;-83
2022/12/24 12:26:27;;;;;;;15.33;5.33;;;;;;;;;;4902894;29;20237;-84
2022/12/24 12:29:24;;;;;;;16.00;7.43;;;;;;;;;;4892321;28;20231;-86
2022/12/24 12:32:03;;;;;;;20.23;8.00;;;;;;;;;;4922781;28;20236;-86
2022/12/24 12:34:41;;;;;;;12.63;7.00;;;;;;;;;;4867229;29;20237;-85
2022/12/24 12:37:35;;;;;;;14.80;5.73;;;;;;;;;;4887265;29;20231;-85
2022/12/24 12:40:01;;;;;;;15.93;4.60;;;;;;;;;;4905779;29;20229;-85
2022/12/24 12:42:32;;;;;;;15.20;5.17;;;;;;;;;;4882307;29;20307;-84
2022/12/24 12:45:44;;;;;;;15.60;5.37;;;;;;;;;;4876477;29;20244;-85
2022/12/24 12:48:28;;;;;;;14.27;4.90;;;;;;;;;;4855553;29;20220;-84
2022/12/24 12:51:02;;;;;;;20.67;5.70;;;;;;;;;;4909460;29;20236;-84
2022/12/24 12:53:49;;;;;;;13.50;5.77;;;;;;;;;;4904256;29;20231;-84
2022/12/24 12:56:16;;;;;;;16.13;5.67;;;;;;;;;;4872485;29;20233;-86
2022/12/24 12:59:02;;;;;;;14.53;5.37;;;;;;;;;;4890452;29;20231;-85
2022/12/24 13:02:18;;;;;;;11.50;5.17;;;;;;;;;;4862724;29;20288;-88
2022/12/24 13:04:49;;;;;;;13.20;4.93;;;;;;;;;;4835942;29;20235;-87
2022/12/24 13:07:17;;;;;;;14.63;5.60;;;;;;;;;;4908960;29;20232;-83
2022/12/24 13:09:54;;;;;;;13.30;5.27;;;;;;;;;;4908434;29;20257;-86
2022/12/24 13:12:46;;;;;;;14.20;5.27;;;;;;;;;;4854458;29;20235;-83
2022/12/24 13:15:30;;;;;;;13.30;5.53;;;;;;;;;;4911006;29;20774;-84
2022/12/24 13:18:30;;;;;;;14.70;5.33;;;;;;;;;;4915484;29;20243;-86
2022/12/24 13:20:55;;;;;;;16.47;5.80;;;;;;;;;;4918488;29;20237;-85
2022/12/24 13:23:22;;;;;;;22.77;6.13;;;;;;;;;;4904123;29;20224;-81
2022/12/24 13:25:53;;;;;;;17.10;6.53;;;;;;;;;;4906493;29;20228;-86
2022/12/24 13:28:21;;;;;;;18.37;7.07;;;;;;;;;;4891829;29;20284;-82
2022/12/24 13:31:08;;;;;;;14.53;6.70;;;;;;;;;;4892643;29;20229;-83
2022/12/24 13:33:36;;;;;;;17.73;6.77;;;;;;;;;;4895981;29;20224;-86
2022/12/24 13:36:09;;;;;;;17.13;6.63;;;;;;;;;;4891015;29;20237;-83
2022/12/24 13:38:41;;;;;;;22.13;6.90;;;;;;;;;;4888002;29;20248;-84
2022/12/24 13:41:35;;;;;;;20.40;7.47;;;;;;;;;;4907003;29;20240;-84
2022/12/24 13:44:11;;;;;;;17.73;7.87;;;;;;;;;;4906398;29;20239;-83
2022/12/24 13:46:59;;;;;;;20.70;6.93;;;;;;;;;;4891047;29;20233;-84
2022/12/24 13:49:46;;;;;;;14.87;7.07;;;;;;;;;;4877928;29;20254;-84
2022/12/24 13:52:13;;;;;;;21.43;6.77;;;;;;;;;;4894650;29;20260;-83
2022/12/24 13:54:45;;;;;;;19.37;7.30;;;;;;;;;;4900367;29;20287;-82
2022/12/24 13:57:29;;;;;;;17.60;6.53;;;;;;;;;;4881499;29;20285;-83
2022/12/24 14:00:20;;;;;;;18.23;6.77;;;;;;;;;;4908235;29;20236;-81
2022/12/24 14:02:53;;;;;;;15.23;6.27;;;;;;;;;;4883035;29;20263;-82
2022/12/24 14:05:45;;;;;;;18.70;6.33;;;;;;;;;;4898750;29;20684;-82
2022/12/24 14:08:24;;;;;;;17.87;6.87;;;;;;;;;;4904467;29;20228;-82
2022/12/24 14:11:06;;;;;;;20.53;6.97;;;;;;;;;;4898748;29;20255;-83
2022/12/24 14:13:38;;;;;;;17.50;7.40;;;;;;;;;;4885751;29;20236;-82
2022/12/24 14:16:07;;;;;;;23.33;7.53;;;;;;;;;;4903174;29;20288;-83
2022/12/24 14:18:45;;;;;;;23.00;7.47;;;;;;;;;;4900126;29;20309;-83
2022/12/24 14:21:17;;;;;;;22.87;7.83;;;;;;;;;;4866826;29;20228;-83
2022/12/24 14:23:57;;;;;;;19.30;7.70;;;;;;;;;;4899181;29;20238;-83
2022/12/24 14:26:26;;;;;;;17.53;8.27;;;;;;;;;;4884523;29;20233;-84
2022/12/24 14:29:06;;;;;;;19.53;7.70;;;;;;;;;;4903175;29;20272;-82
2022/12/24 14:31:32;;;;;;;24.27;8.53;;;;;;;;;;4886501;29;20650;-84
2022/12/24 14:34:10;;;;;;;19.33;9.50;;;;;;;;;;4874361;29;20229;-83
2022/12/24 14:36:36;;;;;;;18.73;9.03;;;;;;;;;;4880640;29;20236;-83
2022/12/24 14:39:01;;;;;;;20.57;8.50;;;;;;;;;;4886508;29;20275;-84
2022/12/24 14:41:39;;;;;;;17.93;8.27;;;;;;;;;;4894869;29;20276;-85
2022/12/24 14:44:30;;;;;;;21.23;8.07;;;;;;;;;;4906373;29;20235;-82
2022/12/24 14:47:00;;;;;;;17.40;7.53;;;;;;;;;;4915959;29;20232;-83
2022/12/24 14:49:40;;;;;;;18.27;7.70;;;;;;;;;;4897258;29;20224;-83
2022/12/24 14:52:45;;;;;;;15.13;7.80;;;;;;;;;;4914018;29;20640;-84
2022/12/24 14:55:30;;;;;;;18.60;7.00;;;;;;;;;;4863167;29;20269;-84
2022/12/24 14:58:20;;;;;;;17.93;7.73;;;;;;;;;;4859360;29;20756;-84
2022/12/24 15:00:45;;;;;;;16.40;7.03;;;;;;;;;;4868802;29;20792;-83
2022/12/24 15:03:13;;;;;;;21.63;8.23;;;;;;;;;;4892841;29;20229;-83
2022/12/24 15:05:38;;;;;;;20.37;7.43;;;;;;;;;;4898420;29;20221;-84